Time;durP1;ratioP1;P1;durP2;ratioP2;P2;SDS_P1;SDS_P2;PMS_P1;PMS_P2;Temp;Humidity;BMP_temperature;BMP_pressure;BME280_temperature;BME280_humidity;BME280_pressure;Samples;Min_cycle;Max_cycle;Signal;HPM_P1;HPM_P2
2022/06/28 00:00:28;;;;;;;17.35;14.32;;;;;;;;;;6261959;28;20033;-50
2022/06/28 00:03:39;;;;;;;;;;;;;;;;;;6264082;28;20866;-56
2022/06/28 00:06:45;;;;;;;19.08;13.48;;;;;;;;;;6263073;28;20275;-49
2022/06/28 00:09:51;;;;;;;19.02;14.52;;;;;;;;;;6266285;28;20126;-50
2022/06/28 00:12:59;;;;;;;20.02;14.40;;;;;;;;;;6265468;28;20147;-47
2022/06/28 00:16:06;;;;;;;20.48;13.60;;;;;;;;;;6266490;28;20045;-49
2022/06/28 00:19:07;;;;;;;18.52;14.10;;;;;;;;;;6261404;28;20079;-47
2022/06/28 00:22:07;;;;;;;16.87;13.53;;;;;;;;;;6264639;28;20048;-47
2022/06/28 00:25:08;;;;;;;19.60;13.63;;;;;;;;;;6265678;28;20168;-47
2022/06/28 00:28:09;;;;;;;20.80;13.87;;;;;;;;;;6263041;28;20119;-56
2022/06/28 00:31:10;;;;;;;16.23;13.77;;;;;;;;;;6265562;28;20049;-54
2022/06/28 00:34:10;;;;;;;17.20;13.40;;;;;;;;;;6256237;28;20052;-52
2022/06/28 00:37:11;;;;;;;20.23;14.27;;;;;;;;;;6263681;28;20118;-57
2022/06/28 00:40:12;;;;;;;18.53;14.30;;;;;;;;;;6262586;28;20085;-53
2022/06/28 00:43:16;;;;;;;17.55;13.77;;;;;;;;;;6263558;28;20092;-47
2022/06/28 00:46:16;;;;;;;18.63;13.85;;;;;;;;;;6264226;28;20070;-57
2022/06/28 00:49:17;;;;;;;19.27;14.47;;;;;;;;;;6254987;28;20053;-48
2022/06/28 00:52:18;;;;;;;18.20;14.33;;;;;;;;;;6261876;28;20055;-52
2022/06/28 00:55:19;;;;;;;23.60;14.20;;;;;;;;;;6264656;28;20057;-52
2022/06/28 00:58:19;;;;;;;17.20;13.77;;;;;;;;;;6262586;28;20058;-54
2022/06/28 01:01:20;;;;;;;18.60;14.68;;;;;;;;;;6265053;28;20057;-48
2022/06/28 01:04:21;;;;;;;18.73;14.90;;;;;;;;;;6262017;28;20155;-48
2022/06/28 01:07:22;;;;;;;21.00;14.80;;;;;;;;;;6262872;28;20516;-48
2022/06/28 01:10:26;;;;;;;19.92;14.68;;;;;;;;;;6258784;28;20049;-48
2022/06/28 01:13:26;;;;;;;19.63;14.50;;;;;;;;;;6258399;28;20454;-50
2022/06/28 01:16:27;;;;;;;19.00;14.40;;;;;;;;;;6259316;28;20064;-55
2022/06/28 01:19:28;;;;;;;;;;;;;;;;;;6257094;28;20121;-48
2022/06/28 01:22:29;;;;;;;19.13;14.70;;;;;;;;;;6258730;28;19929;-57
2022/06/28 01:25:30;;;;;;;20.92;15.45;;;;;;;;;;6256706;28;20695;-48
2022/06/28 01:28:32;;;;;;;19.20;14.77;;;;;;;;;;6257246;28;20045;-51
2022/06/28 01:31:33;;;;;;;21.77;14.70;;;;;;;;;;6258875;28;20148;-51
2022/06/28 01:34:33;;;;;;;19.23;15.07;;;;;;;;;;6258126;28;20532;-48
2022/06/28 01:37:34;;;;;;;19.67;15.00;;;;;;;;;;6256950;28;20044;-51
2022/06/28 01:40:35;;;;;;;19.97;14.53;;;;;;;;;;6258857;28;20048;-52
2022/06/28 01:43:36;;;;;;;21.83;15.27;;;;;;;;;;6259686;28;20041;-53
2022/06/28 01:46:39;;;;;;;21.77;15.65;;;;;;;;;;6257620;28;20049;-52
2022/06/28 01:49:39;;;;;;;21.63;14.70;;;;;;;;;;6255343;28;20075;-55
2022/06/28 01:52:41;;;;;;;22.27;15.20;;;;;;;;;;6260784;28;20143;-52
2022/06/28 01:55:42;;;;;;;20.05;14.38;;;;;;;;;;6258396;28;20088;-57
2022/06/28 01:58:43;;;;;;;22.53;15.67;;;;;;;;;;6257517;28;20071;-48
2022/06/28 02:01:44;;;;;;;24.38;15.05;;;;;;;;;;6257830;28;20053;-49
2022/06/28 02:04:44;;;;;;;21.67;15.10;;;;;;;;;;6258041;28;20507;-50
2022/06/28 02:07:49;;;;;;;23.33;14.98;;;;;;;;;;6259318;28;20040;-53
2022/06/28 02:10:50;;;;;;;19.30;14.32;;;;;;;;;;6259661;28;20079;-58
2022/06/28 02:13:50;;;;;;;19.60;15.00;;;;;;;;;;6257296;28;22032;-50
2022/06/28 02:16:51;;;;;;;20.57;14.53;;;;;;;;;;6255025;28;20045;-55
2022/06/28 02:19:53;;;;;;;21.20;15.43;;;;;;;;;;6258142;28;20049;-48
2022/06/28 02:22:53;;;;;;;;;;;;;;;;;;6257301;28;20420;-48
2022/06/28 02:25:54;;;;;;;20.23;15.07;;;;;;;;;;6255763;28;20019;-53
2022/06/28 02:28:55;;;;;;;19.53;15.47;;;;;;;;;;6257544;28;20683;-50
2022/06/28 02:31:55;;;;;;;19.00;14.93;;;;;;;;;;6257572;28;20060;-50
2022/06/28 02:41:34;;;;;;;19.73;15.00;;;;;;;;;;6255497;28;20118;-54
2022/06/28 02:44:35;;;;;;;22.30;15.68;;;;;;;;;;6256966;28;20037;-48
2022/06/28 02:47:35;;;;;;;19.30;15.20;;;;;;;;;;6263323;28;20120;-53
2022/06/28 02:50:36;;;;;;;21.23;15.33;;;;;;;;;;6262043;28;20053;-51
2022/06/28 02:53:37;;;;;;;18.77;14.87;;;;;;;;;;6262322;28;20052;-50
2022/06/28 02:56:38;;;;;;;21.60;14.93;;;;;;;;;;6262909;28;20084;-50
2022/06/28 02:59:38;;;;;;;20.50;14.97;;;;;;;;;;6262251;28;20047;-48
2022/06/28 03:02:41;;;;;;;22.83;15.33;;;;;;;;;;6259136;28;20294;-55
2022/06/28 03:05:41;;;;;;;23.98;16.00;;;;;;;;;;6262536;28;20053;-55
2022/06/28 03:08:42;;;;;;;19.10;15.17;;;;;;;;;;6260390;28;20056;-48
2022/06/28 03:11:42;;;;;;;22.00;15.40;;;;;;;;;;6261853;28;20131;-51
2022/06/28 03:14:43;;;;;;;21.93;16.40;;;;;;;;;;6262967;28;20056;-54
2022/06/28 03:17:43;;;;;;;25.27;17.07;;;;;;;;;;6261044;28;20052;-49
2022/06/28 03:20:44;;;;;;;26.63;17.03;;;;;;;;;;6259946;28;20049;-48
2022/06/28 03:23:45;;;;;;;21.77;16.90;;;;;;;;;;6263199;28;20084;-48
2022/06/28 03:26:45;;;;;;;20.73;16.33;;;;;;;;;;6258880;28;20293;-53
2022/06/28 03:29:46;;;;;;;23.47;16.40;;;;;;;;;;6259277;28;20544;-47
2022/06/28 03:32:47;;;;;;;22.30;16.40;;;;;;;;;;6260628;28;20059;-48
2022/06/28 03:35:47;;;;;;;24.83;16.83;;;;;;;;;;6261387;28;20049;-50
2022/06/28 03:38:48;;;;;;;24.90;17.43;;;;;;;;;;6262139;28;20073;-52
2022/06/28 03:41:48;;;;;;;23.77;17.37;;;;;;;;;;6259313;28;20139;-48
2022/06/28 03:44:49;;;;;;;22.73;17.27;;;;;;;;;;6260592;28;20040;-48
2022/06/28 03:47:49;;;;;;;25.87;16.67;;;;;;;;;;6260225;28;20040;-55
2022/06/28 03:50:50;;;;;;;28.10;15.93;;;;;;;;;;6261756;28;20397;-50
2022/06/28 03:53:51;;;;;;;21.77;16.60;;;;;;;;;;6267162;28;20091;-54
2022/06/28 03:56:52;;;;;;;20.83;16.63;;;;;;;;;;6259585;28;20080;-48
2022/06/28 03:59:52;;;;;;;23.70;17.20;;;;;;;;;;6261055;28;20087;-49
2022/06/28 04:02:53;;;;;;;24.03;17.50;;;;;;;;;;6257655;28;20052;-50
2022/06/28 04:05:53;;;;;;;25.53;17.30;;;;;;;;;;6260416;28;20045;-50
2022/06/28 04:08:54;;;;;;;23.40;17.37;;;;;;;;;;6258272;28;20049;-48
2022/06/28 04:11:55;;;;;;;25.03;18.03;;;;;;;;;;6259562;28;20568;-48
2022/06/28 04:14:56;;;;;;;22.83;16.80;;;;;;;;;;6260713;28;20057;-47
2022/06/28 04:17:56;;;;;;;23.83;16.73;;;;;;;;;;6264087;28;20772;-49
2022/06/28 04:20:57;;;;;;;27.57;18.40;;;;;;;;;;6259898;28;20461;-50
2022/06/28 04:23:58;;;;;;;25.40;17.83;;;;;;;;;;6260421;28;20732;-51
2022/06/28 04:26:59;;;;;;;30.50;19.20;;;;;;;;;;6258914;28;20056;-49
2022/06/28 04:29:59;;;;;;;25.83;18.60;;;;;;;;;;6259554;28;20777;-53
2022/06/28 04:33:00;;;;;;;31.60;19.47;;;;;;;;;;6260155;28;20052;-47
2022/06/28 04:36:00;;;;;;;28.27;18.43;;;;;;;;;;6260348;28;20045;-47
2022/06/28 04:39:01;;;;;;;27.00;18.63;;;;;;;;;;6257003;28;20136;-48
2022/06/28 04:42:02;;;;;;;29.57;19.50;;;;;;;;;;6258535;28;20032;-52
2022/06/28 04:45:04;;;;;;;29.33;18.42;;;;;;;;;;6261985;28;20173;-56
2022/06/28 04:48:04;;;;;;;24.80;18.15;;;;;;;;;;6258465;28;20047;-47
2022/06/28 04:51:11;;;;;;;25.58;18.67;;;;;;;;;;6262727;28;20059;-47
2022/06/28 04:54:11;;;;;;;26.05;18.52;;;;;;;;;;6263353;28;20079;-47
2022/06/28 04:57:12;;;;;;;25.53;18.33;;;;;;;;;;6261404;28;20065;-48
2022/06/28 05:00:14;;;;;;;24.80;17.77;;;;;;;;;;6261631;28;20141;-49
2022/06/28 05:03:15;;;;;;;26.92;18.02;;;;;;;;;;6264851;28;20057;-50
2022/06/28 05:06:15;;;;;;;26.80;18.03;;;;;;;;;;6264200;28;20126;-49
2022/06/28 05:09:16;;;;;;;31.30;18.57;;;;;;;;;;6260765;28;20148;-50
2022/06/28 05:12:16;;;;;;;36.00;24.23;;;;;;;;;;6249732;28;20140;-47
2022/06/28 05:15:17;;;;;;;34.27;23.47;;;;;;;;;;6259020;28;20132;-48
2022/06/28 05:18:37;;;;;;;34.53;25.45;;;;;;;;;;6255401;28;20045;-48
2022/06/28 05:21:37;;;;;;;29.43;21.60;;;;;;;;;;6254387;28;21096;-47
2022/06/28 05:24:38;;;;;;;34.17;18.57;;;;;;;;;;6258015;28;20049;-50
2022/06/28 05:27:39;;;;;;;27.07;19.23;;;;;;;;;;6259694;28;20126;-48
2022/06/28 05:30:39;;;;;;;25.00;19.57;;;;;;;;;;6253299;28;20053;-48
2022/06/28 05:33:40;;;;;;;23.73;17.90;;;;;;;;;;6260617;28;20534;-46
2022/06/28 05:36:41;;;;;;;24.57;17.43;;;;;;;;;;6261534;28;20049;-52
2022/06/28 05:39:42;;;;;;;43.60;32.33;;;;;;;;;;6257905;28;20052;-51
2022/06/28 05:42:43;;;;;;;32.22;20.50;;;;;;;;;;6257333;28;20107;-49
2022/06/28 05:45:44;;;;;;;22.10;18.40;;;;;;;;;;6258270;28;20056;-49
2022/06/28 05:48:44;;;;;;;25.80;17.47;;;;;;;;;;6256435;28;20839;-48
2022/06/28 05:51:45;;;;;;;23.27;17.20;;;;;;;;;;6257766;28;20041;-47
2022/06/28 05:54:45;;;;;;;25.97;19.47;;;;;;;;;;6253600;28;20303;-47
2022/06/28 05:57:46;;;;;;;24.23;17.20;;;;;;;;;;6257578;28;20053;-47
2022/06/28 06:00:48;;;;;;;25.53;15.67;;;;;;;;;;6256104;28;20055;-48
2022/06/28 06:03:49;;;;;;;24.05;17.30;;;;;;;;;;6256039;28;20045;-47
2022/06/28 06:06:49;;;;;;;25.27;17.08;;;;;;;;;;6258436;28;20448;-48
2022/06/28 06:09:50;;;;;;;20.63;16.33;;;;;;;;;;6256091;28;20049;-47
2022/06/28 06:12:50;;;;;;;23.00;16.60;;;;;;;;;;6255902;28;20053;-48
2022/06/28 06:15:51;;;;;;;22.50;15.80;;;;;;;;;;6258454;28;20998;-47
2022/06/28 06:18:51;;;;;;;22.63;15.60;;;;;;;;;;6255410;28;20045;-48
2022/06/28 06:21:52;;;;;;;23.80;16.10;;;;;;;;;;6254664;28;20044;-52
2022/06/28 06:24:52;;;;;;;23.87;16.10;;;;;;;;;;6258076;28;20135;-48
2022/06/28 06:27:53;;;;;;;22.48;15.02;;;;;;;;;;6258806;28;20068;-48
2022/06/28 06:30:54;;;;;;;19.47;14.30;;;;;;;;;;6256199;28;20041;-48
2022/06/28 06:33:57;;;;;;;22.92;14.65;;;;;;;;;;6257996;28;20102;-50
2022/06/28 06:36:58;;;;;;;20.23;13.93;;;;;;;;;;6238290;28;20449;-47
2022/06/28 06:39:58;;;;;;;18.70;12.67;;;;;;;;;;6254729;28;20405;-48
2022/06/28 06:42:59;;;;;;;20.83;13.43;;;;;;;;;;6256756;28;20311;-48
2022/06/28 06:45:59;;;;;;;18.27;12.63;;;;;;;;;;6256595;28;20047;-47
2022/06/28 06:49:00;;;;;;;17.53;13.10;;;;;;;;;;6258229;28;20132;-48
2022/06/28 06:52:01;;;;;;;17.50;12.60;;;;;;;;;;6254319;28;20053;-51
2022/06/28 06:55:02;;;;;;;19.35;13.25;;;;;;;;;;6258391;28;20641;-48
2022/06/28 06:58:03;;;;;;;17.77;12.80;;;;;;;;;;6258513;28;20107;-47
2022/06/28 07:01:04;;;;;;;16.73;11.67;;;;;;;;;;6256349;28;20175;-48
2022/06/28 07:04:05;;;;;;;15.77;11.75;;;;;;;;;;6258152;28;20052;-49
2022/06/28 07:07:05;;;;;;;21.27;12.17;;;;;;;;;;6259862;28;20136;-50
2022/06/28 07:10:06;;;;;;;14.90;12.10;;;;;;;;;;6257082;28;20454;-48
2022/06/28 07:13:07;;;;;;;18.88;12.88;;;;;;;;;;6258757;28;20579;-48
2022/06/28 07:16:07;;;;;;;18.08;12.27;;;;;;;;;;6257505;28;20427;-50
2022/06/28 07:19:08;;;;;;;15.65;12.35;;;;;;;;;;6255000;28;20040;-48
2022/06/28 07:22:09;;;;;;;13.57;10.98;;;;;;;;;;6255954;28;20040;-47
2022/06/28 07:25:09;;;;;;;14.73;10.97;;;;;;;;;;6258254;28;20061;-47
2022/06/28 07:28:10;;;;;;;12.70;11.20;;;;;;;;;;6259525;28;20033;-49
2022/06/28 07:31:11;;;;;;;16.20;11.35;;;;;;;;;;6258351;28;20106;-48
2022/06/28 07:34:12;;;;;;;16.85;11.57;;;;;;;;;;6263834;28;20245;-49
2022/06/28 07:37:12;;;;;;;16.17;11.40;;;;;;;;;;6258805;28;20045;-47
2022/06/28 07:40:13;;;;;;;21.25;11.23;;;;;;;;;;6261825;28;20080;-48
2022/06/28 07:43:13;;;;;;;14.87;11.17;;;;;;;;;;6264041;28;20132;-48
2022/06/28 07:46:14;;;;;;;16.80;11.20;;;;;;;;;;6263006;28;20404;-48
2022/06/28 07:49:15;;;;;;;13.20;10.30;;;;;;;;;;6259099;28;20431;-48
2022/06/28 07:52:34;;;;;;;15.70;10.88;;;;;;;;;;6257295;28;20595;-46
2022/06/28 07:55:35;;;;;;;15.35;10.98;;;;;;;;;;6257009;28;20104;-51
2022/06/28 07:58:39;;;;;;;19.25;11.80;;;;;;;;;;6260064;28;20053;-48
2022/06/28 08:01:40;;;;;;;20.70;12.73;;;;;;;;;;6258320;28;20088;-48
2022/06/28 08:04:40;;;;;;;19.92;14.23;;;;;;;;;;6258842;28;20500;-48
2022/06/28 08:07:41;;;;;;;17.20;13.43;;;;;;;;;;6239503;28;20045;-49
2022/06/28 08:10:42;;;;;;;20.73;13.40;;;;;;;;;;6258797;28;20834;-50
2022/06/28 08:13:43;;;;;;;17.58;12.93;;;;;;;;;;6259405;28;20040;-49
2022/06/28 08:16:43;;;;;;;19.55;13.32;;;;;;;;;;6257923;28;20052;-49
2022/06/28 08:19:44;;;;;;;17.73;12.50;;;;;;;;;;6258957;28;20045;-50
2022/06/28 08:22:44;;;;;;;20.42;12.18;;;;;;;;;;6258746;28;20060;-48
2022/06/28 08:25:46;;;;;;;16.43;12.20;;;;;;;;;;6259410;28;20044;-48
2022/06/28 08:28:47;;;;;;;19.13;12.57;;;;;;;;;;6259768;28;20297;-52
2022/06/28 08:31:48;;;;;;;17.40;12.73;;;;;;;;;;6259500;28;20114;-49
2022/06/28 08:34:49;;;;;;;16.13;13.60;;;;;;;;;;6259863;28;20075;-52
2022/06/28 08:37:50;;;;;;;15.00;13.38;;;;;;;;;;6257991;28;20049;-49
2022/06/28 08:40:51;;;;;;;17.70;13.32;;;;;;;;;;6257880;28;20462;-48
2022/06/28 08:43:53;;;;;;;15.38;13.70;;;;;;;;;;6259009;28;20057;-50
2022/06/28 08:46:55;;;;;;;17.90;14.48;;;;;;;;;;6257457;28;20567;-50
2022/06/28 08:50:09;;;;;;;18.67;14.55;;;;;;;;;;6255994;28;20049;-48
2022/06/28 08:53:10;;;;;;;19.65;14.98;;;;;;;;;;6257476;28;20076;-47
2022/06/28 08:56:10;;;;;;;18.95;15.02;;;;;;;;;;6258936;28;20053;-52
2022/06/28 08:59:13;;;;;;;16.90;14.32;;;;;;;;;;6256588;28;20104;-48
2022/06/28 09:02:16;;;;;;;17.17;14.57;;;;;;;;;;6255993;28;20407;-47
2022/06/28 09:05:20;;;;;;;17.38;15.10;;;;;;;;;;6258567;28;20099;-53
2022/06/28 09:08:20;;;;;;;17.10;13.60;;;;;;;;;;6258608;28;20081;-50
2022/06/28 09:11:21;;;;;;;16.23;12.93;;;;;;;;;;6253817;28;20067;-50
2022/06/28 09:14:29;;;;;;;15.80;12.80;;;;;;;;;;6256669;28;20178;-47
2022/06/28 09:17:32;;;;;;;16.83;12.90;;;;;;;;;;6261853;28;20079;-49
2022/06/28 09:20:38;;;;;;;15.95;13.50;;;;;;;;;;6262900;28;20539;-48
2022/06/28 09:23:41;;;;;;;15.15;12.65;;;;;;;;;;6265762;28;20056;-44
2022/06/28 09:26:42;;;;;;;18.85;12.77;;;;;;;;;;6264626;28;20040;-47
2022/06/28 09:29:49;;;;;;;15.05;12.38;;;;;;;;;;6261905;28;20049;-47
2022/06/28 09:32:50;;;;;;;15.55;13.20;;;;;;;;;;6263740;28;20076;-50
2022/06/28 09:35:52;;;;;;;18.00;13.68;;;;;;;;;;6244667;28;20044;-48
2022/06/28 09:38:56;;;;;;;15.63;12.75;;;;;;;;;;6233753;28;20144;-47
2022/06/28 09:41:57;;;;;;;17.75;14.10;;;;;;;;;;6234645;28;20511;-46
2022/06/28 09:44:59;;;;;;;17.58;13.65;;;;;;;;;;6237250;28;20049;-50
2022/06/28 09:48:00;;;;;;;17.83;15.05;;;;;;;;;;6240711;28;20048;-47
2022/06/28 09:51:01;;;;;;;20.17;14.35;;;;;;;;;;6240137;28;20136;-48
2022/06/28 09:54:07;;;;;;;17.35;15.05;;;;;;;;;;6242357;28;20099;-47
2022/06/28 09:57:11;;;;;;;18.42;15.43;;;;;;;;;;6239079;28;20056;-50
2022/06/28 10:00:13;;;;;;;20.67;17.52;;;;;;;;;;6239946;28;20080;-47
2022/06/28 10:03:14;;;;;;;22.15;18.27;;;;;;;;;;6237878;28;20053;-49
2022/06/28 10:06:17;;;;;;;20.70;18.08;;;;;;;;;;6235888;28;20632;-47
2022/06/28 10:09:19;;;;;;;23.70;18.50;;;;;;;;;;6241336;28;20915;-53
2022/06/28 10:16:57;;;;;;;25.95;19.08;;;;;;;;;;6237887;28;20053;-54
2022/06/28 10:19:59;;;;;;;26.45;19.42;;;;;;;;;;6097528;28;20075;-48
2022/06/28 10:23:18;;;;;;;;;;;;;;;;;;6175545;28;20049;-55
2022/06/28 10:26:20;;;;;;;27.92;19.48;;;;;;;;;;6235482;28;20011;-47
2022/06/28 10:29:21;;;;;;;30.55;20.17;;;;;;;;;;6239334;28;20053;-48
2022/06/28 10:32:44;;;;;;;21.47;18.97;;;;;;;;;;6239825;28;20609;-48
2022/06/28 10:35:53;;;;;;;23.45;17.83;;;;;;;;;;6237770;28;21282;-47
2022/06/28 10:39:10;;;;;;;18.52;16.33;;;;;;;;;;6238976;28;21077;-53
2022/06/28 10:42:13;;;;;;;17.60;13.50;;;;;;;;;;6235233;28;20048;-50
2022/06/28 10:45:13;;;;;;;16.05;11.68;;;;;;;;;;6233691;28;20115;-49
2022/06/28 10:48:14;;;;;;;15.07;10.57;;;;;;;;;;6237841;28;20567;-47
2022/06/28 10:51:16;;;;;;;12.63;9.25;;;;;;;;;;6237727;28;20601;-52
2022/06/28 10:54:16;;;;;;;;;;;;;;;;;;6242701;28;20057;-51
2022/06/28 10:57:23;;;;;;;12.50;8.10;;;;;;;;;;6236525;28;19936;-50
2022/06/28 11:00:26;;;;;;;12.43;9.38;;;;;;;;;;6235863;28;20053;-48
2022/06/28 11:03:27;;;;;;;11.57;8.75;;;;;;;;;;6239187;28;20060;-47
2022/06/28 11:06:39;;;;;;;12.53;9.27;;;;;;;;;;6237496;28;20033;-53
2022/06/28 11:09:58;;;;;;;12.23;9.27;;;;;;;;;;6239339;28;20168;-47
2022/06/28 11:13:18;;;;;;;14.30;9.38;;;;;;;;;;6240573;28;20049;-47
2022/06/28 11:16:46;;;;;;;12.38;8.70;;;;;;;;;;6233247;28;20052;-47
2022/06/28 11:19:51;;;;;;;13.15;8.48;;;;;;;;;;6238388;28;20140;-49
2022/06/28 11:22:55;;;;;;;13.98;7.45;;;;;;;;;;6238145;28;20053;-48
2022/06/28 11:29:16;;;;;;;12.70;8.35;;;;;;;;;;6241752;28;20126;-48
2022/06/28 11:32:18;;;;;;;13.87;8.47;;;;;;;;;;6244490;28;20062;-49
2022/06/28 11:35:24;;;;;;;14.02;8.13;;;;;;;;;;6237667;28;20060;-51
2022/06/28 11:38:25;;;;;;;16.13;7.13;;;;;;;;;;6239092;28;20807;-50
2022/06/28 11:41:31;;;;;;;11.23;5.77;;;;;;;;;;6236200;28;20050;-47
2022/06/28 11:44:32;;;;;;;7.93;5.20;;;;;;;;;;6240095;28;20136;-50
2022/06/28 11:47:33;;;;;;;;;;;;;;;;;;6235708;28;21144;-47
2022/06/28 11:50:42;;;;;;;7.03;2.80;;;;;;;;;;6237643;28;19932;-47
2022/06/28 11:53:44;;;;;;;8.40;2.90;;;;;;;;;;6244737;28;20085;-47
2022/06/28 11:56:47;;;;;;;8.05;2.70;;;;;;;;;;6243611;28;20057;-53
2022/06/28 11:59:56;;;;;;;5.20;2.53;;;;;;;;;;6242886;28;21337;-55
2022/06/28 12:03:03;;;;;;;5.00;2.25;;;;;;;;;;6245573;28;20102;-47
2022/06/28 12:06:04;;;;;;;4.97;2.70;;;;;;;;;;6242148;28;20049;-51
2022/06/28 12:09:06;;;;;;;4.53;2.40;;;;;;;;;;6243634;28;20160;-46
2022/06/28 12:12:07;;;;;;;6.00;2.80;;;;;;;;;;6244630;28;20100;-48
2022/06/28 12:15:08;;;;;;;6.83;3.10;;;;;;;;;;6241237;28;20049;-50
2022/06/28 12:18:09;;;;;;;8.10;3.40;;;;;;;;;;6243654;28;20112;-51
2022/06/28 12:21:12;;;;;;;5.07;3.00;;;;;;;;;;6243029;28;20049;-45
2022/06/28 12:24:13;;;;;;;6.00;3.00;;;;;;;;;;6243483;28;20095;-47
2022/06/28 12:27:21;;;;;;;8.17;3.60;;;;;;;;;;6244450;28;20069;-51
2022/06/28 12:30:22;;;;;;;7.88;3.70;;;;;;;;;;6245796;28;20555;-46
2022/06/28 12:33:23;;;;;;;10.85;3.70;;;;;;;;;;6247556;28;20061;-47
2022/06/28 12:36:24;;;;;;;8.80;4.00;;;;;;;;;;6242748;28;20059;-51
2022/06/28 12:39:24;;;;;;;8.60;4.23;;;;;;;;;;6243373;28;20049;-49
2022/06/28 12:42:27;;;;;;;10.03;5.77;;;;;;;;;;6244096;28;20067;-47
2022/06/28 12:45:27;;;;;;;13.85;5.80;;;;;;;;;;6242440;28;20310;-49
2022/06/28 12:48:28;;;;;;;11.27;6.33;;;;;;;;;;6242066;28;20045;-51
2022/06/28 12:51:28;;;;;;;10.13;6.13;;;;;;;;;;6243197;28;20043;-53
2022/06/28 12:54:29;;;;;;;10.30;5.33;;;;;;;;;;6245407;28;20049;-49
2022/06/28 12:57:30;;;;;;;11.77;7.63;;;;;;;;;;6243564;28;20090;-48
2022/06/28 13:00:31;;;;;;;14.07;8.30;;;;;;;;;;6246555;28;20045;-47
2022/06/28 13:03:32;;;;;;;12.47;8.53;;;;;;;;;;6245326;28;20298;-47
2022/06/28 13:06:33;;;;;;;13.27;10.43;;;;;;;;;;6242580;28;20056;-49
2022/06/28 13:09:34;;;;;;;17.00;11.20;;;;;;;;;;6244553;28;20061;-46
2022/06/28 13:12:34;;;;;;;15.30;11.77;;;;;;;;;;6243914;28;20060;-60
2022/06/28 13:15:35;;;;;;;15.33;11.20;;;;;;;;;;6241588;28;20049;-51
2022/06/28 13:18:36;;;;;;;17.77;11.75;;;;;;;;;;6243463;28;20060;-48
2022/06/28 13:21:36;;;;;;;16.83;12.20;;;;;;;;;;6243235;28;20176;-48
2022/06/28 13:24:38;;;;;;;14.67;11.90;;;;;;;;;;6241974;28;20121;-47
2022/06/28 13:27:39;;;;;;;14.90;11.63;;;;;;;;;;6239843;28;20065;-58
2022/06/28 13:30:41;;;;;;;15.50;12.33;;;;;;;;;;6243505;28;20406;-47
2022/06/28 13:33:42;;;;;;;15.15;11.55;;;;;;;;;;6243397;28;20314;-50
2022/06/28 13:36:43;;;;;;;14.43;11.17;;;;;;;;;;6224695;28;20564;-50
2022/06/28 13:39:43;;;;;;;14.20;10.97;;;;;;;;;;6244067;28;20251;-45
2022/06/28 13:42:44;;;;;;;13.53;11.43;;;;;;;;;;6242324;28;20049;-50
2022/06/28 13:45:44;;;;;;;14.43;11.67;;;;;;;;;;6242018;28;20049;-48
2022/06/28 13:48:45;;;;;;;16.30;12.37;;;;;;;;;;6242761;28;20553;-47
2022/06/28 13:51:46;;;;;;;16.73;11.60;;;;;;;;;;6225782;28;20050;-48
2022/06/28 13:54:46;;;;;;;19.17;13.87;;;;;;;;;;6242228;28;20092;-52
2022/06/28 13:57:47;;;;;;;18.20;13.07;;;;;;;;;;6238985;28;20057;-51
2022/06/28 14:00:48;;;;;;;17.80;12.93;;;;;;;;;;6242654;28;20512;-49
2022/06/28 14:03:48;;;;;;;16.88;12.20;;;;;;;;;;6244802;28;20307;-54
2022/06/28 14:06:49;;;;;;;14.50;11.10;;;;;;;;;;6236610;28;20056;-48
2022/06/28 14:09:50;;;;;;;16.07;10.93;;;;;;;;;;6240525;28;20441;-49
2022/06/28 14:12:50;;;;;;;14.87;10.23;;;;;;;;;;6241538;28;20444;-49
2022/06/28 14:15:51;;;;;;;14.70;10.50;;;;;;;;;;6242529;28;20053;-50
2022/06/28 14:18:52;;;;;;;14.48;11.32;;;;;;;;;;6237405;28;20102;-48
2022/06/28 14:21:54;;;;;;;14.00;11.50;;;;;;;;;;6243094;28;20496;-49
2022/06/28 14:24:55;;;;;;;14.20;11.82;;;;;;;;;;6236672;28;20065;-48
2022/06/28 14:27:56;;;;;;;16.63;13.17;;;;;;;;;;6241420;28;20546;-49
2022/06/28 14:30:57;;;;;;;17.30;12.97;;;;;;;;;;6238124;28;20076;-51
2022/06/28 14:33:58;;;;;;;19.85;12.30;;;;;;;;;;6242972;28;20455;-49
2022/06/28 14:36:59;;;;;;;16.03;11.67;;;;;;;;;;6236395;28;20045;-48
2022/06/28 14:39:59;;;;;;;18.48;12.82;;;;;;;;;;6239066;28;20042;-53
2022/06/28 14:43:02;;;;;;;16.07;12.00;;;;;;;;;;6248866;28;20049;-47
2022/06/28 14:46:02;;;;;;;15.07;12.30;;;;;;;;;;6244244;28;20298;-49
2022/06/28 14:49:03;;;;;;;14.13;11.50;;;;;;;;;;6246441;28;20052;-48
2022/06/28 14:52:04;;;;;;;14.13;11.20;;;;;;;;;;6245529;28;20183;-49
2022/06/28 14:55:05;;;;;;;15.85;12.13;;;;;;;;;;6247047;28;20085;-47
2022/06/28 14:58:07;;;;;;;15.20;11.57;;;;;;;;;;6243517;28;20048;-51
2022/06/28 15:01:08;;;;;;;15.95;11.45;;;;;;;;;;6244600;28;20118;-51
2022/06/28 15:04:08;;;;;;;14.47;11.53;;;;;;;;;;6247553;28;20045;-50
2022/06/28 15:07:09;;;;;;;14.70;11.95;;;;;;;;;;6244574;28;20067;-47
2022/06/28 15:10:10;;;;;;;15.07;11.57;;;;;;;;;;6246630;28;20133;-48
2022/06/28 15:13:10;;;;;;;17.60;12.97;;;;;;;;;;6244283;28;20049;-49
2022/06/28 15:16:11;;;;;;;15.63;12.10;;;;;;;;;;6246343;28;20302;-49
2022/06/28 15:19:11;;;;;;;18.23;13.27;;;;;;;;;;6247825;28;20556;-47
2022/06/28 15:32:11;;;;;;;14.63;11.77;;;;;;;;;;6244135;28;20404;-50
2022/06/28 15:35:11;;;;;;;17.02;11.70;;;;;;;;;;6245555;28;20061;-51
2022/06/28 15:38:14;;;;;;;17.77;11.40;;;;;;;;;;6243718;28;20057;-49
2022/06/28 15:41:14;;;;;;;18.42;12.27;;;;;;;;;;6245327;28;20164;-49
2022/06/28 15:44:15;;;;;;;15.63;12.20;;;;;;;;;;6242730;28;20183;-54
2022/06/28 15:47:15;;;;;;;15.47;11.70;;;;;;;;;;6243935;28;20045;-50
2022/06/28 15:50:16;;;;;;;17.27;12.32;;;;;;;;;;6246203;28;20054;-47
2022/06/28 15:53:16;;;;;;;16.27;12.23;;;;;;;;;;6243614;28;20482;-47
2022/06/28 15:56:17;;;;;;;13.93;11.63;;;;;;;;;;6240939;28;20057;-48
2022/06/28 15:59:17;;;;;;;16.97;12.47;;;;;;;;;;6242170;28;20873;-47
2022/06/28 16:02:59;;;;;;;12.67;9.63;;;;;;;;;;6242593;28;20156;-47
2022/06/28 16:06:00;;;;;;;10.35;7.85;;;;;;;;;;6132595;28;20050;-47
2022/06/28 16:09:00;;;;;;;10.53;7.77;;;;;;;;;;6168857;28;20066;-51
2022/06/28 16:15:23;;;;;;;12.68;7.18;;;;;;;;;;6162455;28;20110;-47
2022/06/28 16:18:24;;;;;;;10.43;7.15;;;;;;;;;;6164158;28;20057;-49
2022/06/28 16:21:25;;;;;;;11.07;7.18;;;;;;;;;;6165859;28;20121;-48
2022/06/28 16:24:25;;;;;;;10.20;6.97;;;;;;;;;;6167286;28;20046;-48
2022/06/28 16:27:26;;;;;;;10.95;6.63;;;;;;;;;;6165641;28;20584;-47
2022/06/28 16:30:28;;;;;;;10.47;6.40;;;;;;;;;;6164609;28;20049;-51
2022/06/28 16:33:29;;;;;;;12.23;7.00;;;;;;;;;;6163974;28;20137;-51
2022/06/28 16:36:29;;;;;;;8.27;6.70;;;;;;;;;;6163778;28;20054;-52
2022/06/28 16:39:32;;;;;;;9.30;6.83;;;;;;;;;;6167821;28;20448;-50
2022/06/28 16:42:35;;;;;;;10.60;6.90;;;;;;;;;;6166030;28;20042;-47
2022/06/28 16:45:37;;;;;;;10.55;6.32;;;;;;;;;;6165150;28;20109;-50
2022/06/28 16:48:37;;;;;;;8.02;6.38;;;;;;;;;;6163061;28;20057;-50
2022/06/28 16:51:38;;;;;;;11.70;6.40;;;;;;;;;;6163416;28;20051;-53
2022/06/28 16:54:42;;;;;;;9.07;6.20;;;;;;;;;;6169074;28;20062;-51
2022/06/28 16:57:43;;;;;;;8.27;5.60;;;;;;;;;;6241785;28;20053;-46
2022/06/28 17:00:43;;;;;;;9.33;6.27;;;;;;;;;;6245749;28;20133;-47
2022/06/28 17:03:44;;;;;;;9.53;5.90;;;;;;;;;;6249088;28;20052;-49
2022/06/28 17:10:04;;;;;;;7.80;5.80;;;;;;;;;;6247106;28;20599;-48
2022/06/28 17:13:05;;;;;;;8.52;5.65;;;;;;;;;;6240900;28;20068;-48
2022/06/28 17:16:05;;;;;;;8.43;5.53;;;;;;;;;;6241804;28;20056;-49
2022/06/28 17:19:06;;;;;;;8.03;5.47;;;;;;;;;;6246763;28;20049;-47
2022/06/28 17:22:07;;;;;;;8.00;6.00;;;;;;;;;;6245494;28;20053;-48
2022/06/28 17:25:08;;;;;;;8.17;5.73;;;;;;;;;;6246816;28;20039;-47
2022/06/28 17:28:08;;;;;;;8.05;6.00;;;;;;;;;;6241884;28;20118;-48
2022/06/28 17:31:11;;;;;;;7.63;6.03;;;;;;;;;;6248896;28;20064;-48
2022/06/28 17:34:11;;;;;;;7.80;6.13;;;;;;;;;;6225113;28;20045;-48
2022/06/28 17:37:12;;;;;;;7.50;6.10;;;;;;;;;;6244134;28;20056;-50
2022/06/28 17:40:14;;;;;;;9.00;6.50;;;;;;;;;;6242985;28;20046;-49
2022/06/28 17:43:16;;;;;;;8.07;6.23;;;;;;;;;;6242300;28;20063;-54
2022/06/28 17:46:17;;;;;;;9.68;6.47;;;;;;;;;;6236224;28;20553;-55
2022/06/28 17:49:19;;;;;;;9.10;6.87;;;;;;;;;;6239562;28;20053;-48
2022/06/28 17:52:21;;;;;;;9.32;6.65;;;;;;;;;;6242955;28;20757;-47
2022/06/28 17:55:21;;;;;;;8.05;6.53;;;;;;;;;;6234988;28;20065;-48
2022/06/28 17:58:22;;;;;;;10.13;7.57;;;;;;;;;;6241316;28;20590;-49
2022/06/28 18:01:22;;;;;;;9.57;6.90;;;;;;;;;;6242581;28;20688;-48
2022/06/28 18:04:25;;;;;;;10.43;7.00;;;;;;;;;;6242865;28;20483;-49
2022/06/28 18:07:25;;;;;;;11.00;7.00;;;;;;;;;;6239530;28;20053;-49
2022/06/28 18:10:26;;;;;;;11.10;8.07;;;;;;;;;;6244990;28;20102;-47
2022/06/28 18:13:27;;;;;;;9.80;7.10;;;;;;;;;;6240030;28;20045;-53
2022/06/28 18:16:29;;;;;;;9.88;7.97;;;;;;;;;;6240860;28;20068;-47